sensor_id;sensor_type;location;lat;lon;timestamp;temperature;humidity
19728;DHT22;10015;52.530;13.390;2023-05-27T00:00:07;15.00;99.90
19728;DHT22;10015;52.530;13.390;2023-05-27T00:02:34;15.00;99.90
19728;DHT22;10015;52.530;13.390;2023-05-27T00:05:00;15.00;99.90
19728;DHT22;10015;52.530;13.390;2023-05-27T00:07:26;15.00;99.90
19728;DHT22;10015;52.530;13.390;2023-05-27T00:09:52;15.00;99.90
19728;DHT22;10015;52.530;13.390;2023-05-27T00:12:18;15.00;99.90
19728;DHT22;10015;52.530;13.390;2023-05-27T00:14:44;15.00;99.90
19728;DHT22;10015;52.530;13.390;2023-05-27T00:17:10;15.00;99.90
19728;DHT22;10015;52.530;13.390;2023-05-27T00:19:43;15.00;99.90
19728;DHT22;10015;52.530;13.390;2023-05-27T00:22:13;14.90;99.90
19728;DHT22;10015;52.530;13.390;2023-05-27T00:24:39;14.90;99.90
19728;DHT22;10015;52.530;13.390;2023-05-27T00:27:08;14.80;99.90
19728;DHT22;10015;52.530;13.390;2023-05-27T00:29:35;14.80;99.90
19728;DHT22;10015;52.530;13.390;2023-05-27T00:32:02;14.70;99.90
19728;DHT22;10015;52.530;13.390;2023-05-27T00:34:31;14.80;99.90
19728;DHT22;10015;52.530;13.390;2023-05-27T00:36:59;14.80;99.90
19728;DHT22;10015;52.530;13.390;2023-05-27T00:39:25;14.70;99.90
19728;DHT22;10015;52.530;13.390;2023-05-27T00:41:51;14.70;99.90
19728;DHT22;10015;52.530;13.390;2023-05-27T00:44:18;14.70;99.90
19728;DHT22;10015;52.530;13.390;2023-05-27T00:46:47;14.70;99.90
19728;DHT22;10015;52.530;13.390;2023-05-27T00:49:15;14.70;99.90
19728;DHT22;10015;52.530;13.390;2023-05-27T00:51:42;14.70;99.90
19728;DHT22;10015;52.530;13.390;2023-05-27T00:54:08;14.70;99.90
19728;DHT22;10015;52.530;13.390;2023-05-27T00:56:36;14.70;99.90
19728;DHT22;10015;52.530;13.390;2023-05-27T00:59:03;14.70;99.90
19728;DHT22;10015;52.530;13.390;2023-05-27T01:01:29;14.70;99.90
19728;DHT22;10015;52.530;13.390;2023-05-27T01:03:56;14.80;99.90
19728;DHT22;10015;52.530;13.390;2023-05-27T01:09:47;14.70;99.90
19728;DHT22;10015;52.530;13.390;2023-05-27T01:12:31;14.70;99.90
19728;DHT22;10015;52.530;13.390;2023-05-27T01:15:02;14.70;99.90
19728;DHT22;10015;52.530;13.390;2023-05-27T01:17:31;14.70;99.90
19728;DHT22;10015;52.530;13.390;2023-05-27T01:19:59;14.70;99.90
19728;DHT22;10015;52.530;13.390;2023-05-27T01:22:30;14.70;99.90
19728;DHT22;10015;52.530;13.390;2023-05-27T01:24:57;14.70;99.90
19728;DHT22;10015;52.530;13.390;2023-05-27T01:27:23;14.70;99.90
19728;DHT22;10015;52.530;13.390;2023-05-27T01:29:53;14.60;99.90
19728;DHT22;10015;52.530;13.390;2023-05-27T01:35:00;14.60;99.90
19728;DHT22;10015;52.530;13.390;2023-05-27T01:37:33;14.60;99.90
19728;DHT22;10015;52.530;13.390;2023-05-27T01:40:02;14.60;99.90
19728;DHT22;10015;52.530;13.390;2023-05-27T01:42:34;14.60;99.90
19728;DHT22;10015;52.530;13.390;2023-05-27T01:45:03;14.60;99.90
19728;DHT22;10015;52.530;13.390;2023-05-27T01:47:31;14.60;99.90
19728;DHT22;10015;52.530;13.390;2023-05-27T01:49:57;14.60;99.90
19728;DHT22;10015;52.530;13.390;2023-05-27T01:52:23;14.60;99.90
19728;DHT22;10015;52.530;13.390;2023-05-27T01:54:50;14.60;99.90
19728;DHT22;10015;52.530;13.390;2023-05-27T01:57:17;14.60;99.90
19728;DHT22;10015;52.530;13.390;2023-05-27T01:59:43;14.60;99.90
19728;DHT22;10015;52.530;13.390;2023-05-27T02:02:10;14.60;99.90
19728;DHT22;10015;52.530;13.390;2023-05-27T02:04:36;14.50;99.90
19728;DHT22;10015;52.530;13.390;2023-05-27T02:07:02;14.50;99.90
19728;DHT22;10015;52.530;13.390;2023-05-27T02:09:29;14.60;99.90
19728;DHT22;10015;52.530;13.390;2023-05-27T02:11:55;14.60;99.90
19728;DHT22;10015;52.530;13.390;2023-05-27T02:14:21;14.60;99.90
19728;DHT22;10015;52.530;13.390;2023-05-27T02:16:47;14.60;99.90
19728;DHT22;10015;52.530;13.390;2023-05-27T02:19:15;14.60;99.90
19728;DHT22;10015;52.530;13.390;2023-05-27T02:21:41;14.60;99.90
19728;DHT22;10015;52.530;13.390;2023-05-27T02:24:07;14.60;99.90
19728;DHT22;10015;52.530;13.390;2023-05-27T02:26:34;14.60;99.90
19728;DHT22;10015;52.530;13.390;2023-05-27T02:29:02;14.60;99.90
19728;DHT22;10015;52.530;13.390;2023-05-27T02:31:28;14.60;99.90
19728;DHT22;10015;52.530;13.390;2023-05-27T02:33:54;14.60;99.90
19728;DHT22;10015;52.530;13.390;2023-05-27T02:36:20;14.60;99.90
19728;DHT22;10015;52.530;13.390;2023-05-27T02:38:47;14.60;99.90
19728;DHT22;10015;52.530;13.390;2023-05-27T02:41:13;14.50;99.90
19728;DHT22;10015;52.530;13.390;2023-05-27T02:43:39;14.50;99.90
19728;DHT22;10015;52.530;13.390;2023-05-27T02:46:05;14.50;99.90
19728;DHT22;10015;52.530;13.390;2023-05-27T02:48:31;14.40;99.90
19728;DHT22;10015;52.530;13.390;2023-05-27T02:50:57;14.40;99.90
19728;DHT22;10015;52.530;13.390;2023-05-27T02:53:23;14.50;99.90
19728;DHT22;10015;52.530;13.390;2023-05-27T02:55:49;14.50;99.90
19728;DHT22;10015;52.530;13.390;2023-05-27T02:58:15;14.50;99.90
19728;DHT22;10015;52.530;13.390;2023-05-27T03:00:41;14.50;99.90
19728;DHT22;10015;52.530;13.390;2023-05-27T03:03:08;14.50;99.90
19728;DHT22;10015;52.530;13.390;2023-05-27T03:05:34;14.50;99.90
19728;DHT22;10015;52.530;13.390;2023-05-27T03:08:01;14.50;99.90
19728;DHT22;10015;52.530;13.390;2023-05-27T03:10:28;14.50;99.90
19728;DHT22;10015;52.530;13.390;2023-05-27T03:12:54;14.50;99.90
19728;DHT22;10015;52.530;13.390;2023-05-27T03:15:23;14.40;99.90
19728;DHT22;10015;52.530;13.390;2023-05-27T03:17:50;14.40;99.90
19728;DHT22;10015;52.530;13.390;2023-05-27T03:20:17;14.50;99.90
19728;DHT22;10015;52.530;13.390;2023-05-27T03:22:45;14.50;99.90
19728;DHT22;10015;52.530;13.390;2023-05-27T03:25:11;14.50;99.90
19728;DHT22;10015;52.530;13.390;2023-05-27T03:27:38;14.50;99.90
19728;DHT22;10015;52.530;13.390;2023-05-27T03:30:07;14.50;99.90
19728;DHT22;10015;52.530;13.390;2023-05-27T03:32:37;14.50;99.90
19728;DHT22;10015;52.530;13.390;2023-05-27T03:35:04;14.50;99.90
19728;DHT22;10015;52.530;13.390;2023-05-27T03:37:31;14.50;99.90
19728;DHT22;10015;52.530;13.390;2023-05-27T03:40:02;14.40;99.90
19728;DHT22;10015;52.530;13.390;2023-05-27T03:42:29;14.40;99.90
19728;DHT22;10015;52.530;13.390;2023-05-27T03:44:56;14.40;99.90
19728;DHT22;10015;52.530;13.390;2023-05-27T03:47:24;14.40;99.90
19728;DHT22;10015;52.530;13.390;2023-05-27T03:49:50;14.40;99.90
19728;DHT22;10015;52.530;13.390;2023-05-27T03:52:18;14.50;99.90
19728;DHT22;10015;52.530;13.390;2023-05-27T03:54:44;14.50;99.90
19728;DHT22;10015;52.530;13.390;2023-05-27T03:57:10;14.40;99.90
19728;DHT22;10015;52.530;13.390;2023-05-27T03:59:36;14.50;99.90
19728;DHT22;10015;52.530;13.390;2023-05-27T04:02:03;14.50;99.90
19728;DHT22;10015;52.530;13.390;2023-05-27T04:04:30;14.50;99.90
19728;DHT22;10015;52.530;13.390;2023-05-27T04:06:56;14.40;99.90
19728;DHT22;10015;52.530;13.390;2023-05-27T04:09:22;14.50;99.90
19728;DHT22;10015;52.530;13.390;2023-05-27T04:11:48;14.50;99.90
19728;DHT22;10015;52.530;13.390;2023-05-27T04:14:14;14.50;99.90
19728;DHT22;10015;52.530;13.390;2023-05-27T04:16:40;14.50;99.90
19728;DHT22;10015;52.530;13.390;2023-05-27T04:19:07;14.50;99.90
19728;DHT22;10015;52.530;13.390;2023-05-27T04:21:33;14.50;99.90
19728;DHT22;10015;52.530;13.390;2023-05-27T04:24:02;14.40;99.90
19728;DHT22;10015;52.530;13.390;2023-05-27T04:26:29;14.40;99.90
19728;DHT22;10015;52.530;13.390;2023-05-27T04:28:55;14.30;99.90
19728;DHT22;10015;52.530;13.390;2023-05-27T04:31:26;14.30;99.90
19728;DHT22;10015;52.530;13.390;2023-05-27T04:33:59;14.20;99.90
19728;DHT22;10015;52.530;13.390;2023-05-27T04:36:25;14.30;99.90
19728;DHT22;10015;52.530;13.390;2023-05-27T04:39:02;14.30;99.90
19728;DHT22;10015;52.530;13.390;2023-05-27T04:41:30;14.40;99.90
19728;DHT22;10015;52.530;13.390;2023-05-27T04:44:13;14.50;99.90
19728;DHT22;10015;52.530;13.390;2023-05-27T04:46:43;14.60;99.90
19728;DHT22;10015;52.530;13.390;2023-05-27T04:49:09;14.70;99.90
19728;DHT22;10015;52.530;13.390;2023-05-27T04:51:36;14.80;99.90
19728;DHT22;10015;52.530;13.390;2023-05-27T04:54:03;14.90;99.90
19728;DHT22;10015;52.530;13.390;2023-05-27T04:56:29;15.00;99.90
19728;DHT22;10015;52.530;13.390;2023-05-27T04:58:55;15.10;99.90
19728;DHT22;10015;52.530;13.390;2023-05-27T05:01:29;15.20;99.90
19728;DHT22;10015;52.530;13.390;2023-05-27T05:04:12;15.30;99.90
19728;DHT22;10015;52.530;13.390;2023-05-27T05:06:45;15.50;99.90
19728;DHT22;10015;52.530;13.390;2023-05-27T05:09:12;15.60;99.90
19728;DHT22;10015;52.530;13.390;2023-05-27T05:11:39;15.70;99.90
19728;DHT22;10015;52.530;13.390;2023-05-27T05:14:07;15.90;99.90
19728;DHT22;10015;52.530;13.390;2023-05-27T05:16:33;16.00;99.90
19728;DHT22;10015;52.530;13.390;2023-05-27T05:18:59;16.10;99.90
19728;DHT22;10015;52.530;13.390;2023-05-27T05:21:29;16.30;99.90
19728;DHT22;10015;52.530;13.390;2023-05-27T05:23:56;16.40;99.90
19728;DHT22;10015;52.530;13.390;2023-05-27T05:26:22;16.60;99.90
19728;DHT22;10015;52.530;13.390;2023-05-27T05:28:48;16.70;99.90
19728;DHT22;10015;52.530;13.390;2023-05-27T05:31:14;16.90;99.90
19728;DHT22;10015;52.530;13.390;2023-05-27T05:33:41;17.00;99.90
19728;DHT22;10015;52.530;13.390;2023-05-27T05:36:07;17.10;99.90
19728;DHT22;10015;52.530;13.390;2023-05-27T05:38:50;17.30;99.90
19728;DHT22;10015;52.530;13.390;2023-05-27T05:41:16;17.50;99.90
19728;DHT22;10015;52.530;13.390;2023-05-27T05:43:43;17.70;99.90
19728;DHT22;10015;52.530;13.390;2023-05-27T05:46:09;17.90;99.90
19728;DHT22;10015;52.530;13.390;2023-05-27T05:48:36;18.10;99.90
19728;DHT22;10015;52.530;13.390;2023-05-27T05:51:02;18.30;99.90
19728;DHT22;10015;52.530;13.390;2023-05-27T05:53:28;18.40;99.90
19728;DHT22;10015;52.530;13.390;2023-05-27T05:55:55;18.50;99.90
19728;DHT22;10015;52.530;13.390;2023-05-27T05:58:21;18.70;99.90
19728;DHT22;10015;52.530;13.390;2023-05-27T06:00:49;18.80;99.90
19728;DHT22;10015;52.530;13.390;2023-05-27T06:03:34;19.00;99.90
19728;DHT22;10015;52.530;13.390;2023-05-27T06:06:01;19.10;99.90
19728;DHT22;10015;52.530;13.390;2023-05-27T06:08:28;18.70;99.90
19728;DHT22;10015;52.530;13.390;2023-05-27T06:11:10;18.50;99.90
19728;DHT22;10015;52.530;13.390;2023-05-27T06:13:37;18.40;99.90
19728;DHT22;10015;52.530;13.390;2023-05-27T06:16:06;18.40;99.90
19728;DHT22;10015;52.530;13.390;2023-05-27T06:18:32;18.40;99.90
19728;DHT22;10015;52.530;13.390;2023-05-27T06:20:59;18.40;99.90
19728;DHT22;10015;52.530;13.390;2023-05-27T06:23:26;18.50;99.90
19728;DHT22;10015;52.530;13.390;2023-05-27T06:26:14;18.70;99.90
19728;DHT22;10015;52.530;13.390;2023-05-27T06:28:46;18.60;99.90
19728;DHT22;10015;52.530;13.390;2023-05-27T06:31:13;18.60;99.90
19728;DHT22;10015;52.530;13.390;2023-05-27T06:33:41;18.60;99.90
19728;DHT22;10015;52.530;13.390;2023-05-27T06:36:07;18.70;99.90
19728;DHT22;10015;52.530;13.390;2023-05-27T06:38:34;18.70;99.90
19728;DHT22;10015;52.530;13.390;2023-05-27T06:41:00;18.80;99.90
19728;DHT22;10015;52.530;13.390;2023-05-27T06:43:26;18.90;99.90
19728;DHT22;10015;52.530;13.390;2023-05-27T06:46:27;19.20;99.90
19728;DHT22;10015;52.530;13.390;2023-05-27T06:49:07;19.40;99.90
19728;DHT22;10015;52.530;13.390;2023-05-27T06:51:34;19.40;99.90
19728;DHT22;10015;52.530;13.390;2023-05-27T06:54:01;19.30;99.90
19728;DHT22;10015;52.530;13.390;2023-05-27T06:56:35;19.40;99.80
19728;DHT22;10015;52.530;13.390;2023-05-27T06:59:01;19.60;99.40
19728;DHT22;10015;52.530;13.390;2023-05-27T07:01:27;19.40;99.40
19728;DHT22;10015;52.530;13.390;2023-05-27T07:03:58;19.50;99.90
19728;DHT22;10015;52.530;13.390;2023-05-27T07:06:36;19.60;99.90
19728;DHT22;10015;52.530;13.390;2023-05-27T07:09:03;19.80;98.90
19728;DHT22;10015;52.530;13.390;2023-05-27T07:11:33;19.90;99.30
19728;DHT22;10015;52.530;13.390;2023-05-27T07:14:03;20.20;99.90
19728;DHT22;10015;52.530;13.390;2023-05-27T07:16:32;20.40;99.10
19728;DHT22;10015;52.530;13.390;2023-05-27T07:18:58;20.60;97.40
19728;DHT22;10015;52.530;13.390;2023-05-27T07:21:26;20.80;97.90
19728;DHT22;10015;52.530;13.390;2023-05-27T07:23:52;20.90;95.10
19728;DHT22;10015;52.530;13.390;2023-05-27T07:26:35;20.80;95.90
19728;DHT22;10015;52.530;13.390;2023-05-27T07:29:01;21.00;97.60
19728;DHT22;10015;52.530;13.390;2023-05-27T07:31:37;21.20;99.20
19728;DHT22;10015;52.530;13.390;2023-05-27T07:34:10;21.60;99.40
19728;DHT22;10015;52.530;13.390;2023-05-27T07:36:36;21.80;95.90
19728;DHT22;10015;52.530;13.390;2023-05-27T07:39:03;21.80;96.40
19728;DHT22;10015;52.530;13.390;2023-05-27T07:41:29;21.80;95.60
19728;DHT22;10015;52.530;13.390;2023-05-27T07:43:56;21.40;93.80
19728;DHT22;10015;52.530;13.390;2023-05-27T07:46:22;21.40;95.10
19728;DHT22;10015;52.530;13.390;2023-05-27T07:48:48;21.60;96.70
19728;DHT22;10015;52.530;13.390;2023-05-27T07:51:14;21.70;93.10
19728;DHT22;10015;52.530;13.390;2023-05-27T07:53:41;21.60;93.00
19728;DHT22;10015;52.530;13.390;2023-05-27T07:56:07;21.60;92.20
19728;DHT22;10015;52.530;13.390;2023-05-27T07:58:33;21.40;92.10
19728;DHT22;10015;52.530;13.390;2023-05-27T08:01:05;21.50;94.90
19728;DHT22;10015;52.530;13.390;2023-05-27T08:03:32;21.90;95.50
19728;DHT22;10015;52.530;13.390;2023-05-27T08:06:06;22.20;95.30
19728;DHT22;10015;52.530;13.390;2023-05-27T08:08:41;22.50;95.40
19728;DHT22;10015;52.530;13.390;2023-05-27T08:11:19;22.90;95.00
19728;DHT22;10015;52.530;13.390;2023-05-27T08:14:00;22.90;92.50
19728;DHT22;10015;52.530;13.390;2023-05-27T08:16:47;23.10;91.40
19728;DHT22;10015;52.530;13.390;2023-05-27T08:19:20;23.30;93.40
19728;DHT22;10015;52.530;13.390;2023-05-27T08:21:56;23.50;93.40
19728;DHT22;10015;52.530;13.390;2023-05-27T08:24:58;23.80;93.00
19728;DHT22;10015;52.530;13.390;2023-05-27T08:27:52;24.00;92.20
19728;DHT22;10015;52.530;13.390;2023-05-27T08:30:30;24.10;92.00
19728;DHT22;10015;52.530;13.390;2023-05-27T08:33:07;24.30;92.20
19728;DHT22;10015;52.530;13.390;2023-05-27T08:35:33;24.40;90.60
19728;DHT22;10015;52.530;13.390;2023-05-27T08:38:00;24.10;90.00
19728;DHT22;10015;52.530;13.390;2023-05-27T08:40:30;24.20;90.70
19728;DHT22;10015;52.530;13.390;2023-05-27T08:42:57;24.30;91.50
19728;DHT22;10015;52.530;13.390;2023-05-27T08:45:24;24.50;90.50
19728;DHT22;10015;52.530;13.390;2023-05-27T08:47:50;24.50;83.60
19728;DHT22;10015;52.530;13.390;2023-05-27T08:50:22;23.90;81.40
19728;DHT22;10015;52.530;13.390;2023-05-27T08:52:52;23.30;81.40
19728;DHT22;10015;52.530;13.390;2023-05-27T08:55:21;23.10;83.80
19728;DHT22;10015;52.530;13.390;2023-05-27T08:57:59;23.00;84.40
19728;DHT22;10015;52.530;13.390;2023-05-27T09:00:31;22.90;82.30
19728;DHT22;10015;52.530;13.390;2023-05-27T09:03:04;22.80;84.30
19728;DHT22;10015;52.530;13.390;2023-05-27T09:05:32;22.80;82.00
19728;DHT22;10015;52.530;13.390;2023-05-27T09:07:59;22.70;84.40
19728;DHT22;10015;52.530;13.390;2023-05-27T09:10:35;22.90;85.70
19728;DHT22;10015;52.530;13.390;2023-05-27T09:13:01;23.20;86.90
19728;DHT22;10015;52.530;13.390;2023-05-27T09:15:29;23.50;81.10
19728;DHT22;10015;52.530;13.390;2023-05-27T09:17:56;23.50;84.00
19728;DHT22;10015;52.530;13.390;2023-05-27T09:20:26;23.60;86.10
19728;DHT22;10015;52.530;13.390;2023-05-27T09:23:00;23.90;80.90
19728;DHT22;10015;52.530;13.390;2023-05-27T09:25:27;23.90;82.00
19728;DHT22;10015;52.530;13.390;2023-05-27T09:27:54;23.80;78.80
19728;DHT22;10015;52.530;13.390;2023-05-27T09:30:21;23.40;80.80
19728;DHT22;10015;52.530;13.390;2023-05-27T09:32:48;23.40;79.40
19728;DHT22;10015;52.530;13.390;2023-05-27T09:35:16;23.20;78.90
19728;DHT22;10015;52.530;13.390;2023-05-27T09:37:44;23.00;80.00
19728;DHT22;10015;52.530;13.390;2023-05-27T09:40:13;22.90;82.30
19728;DHT22;10015;52.530;13.390;2023-05-27T09:42:40;23.10;82.20
19728;DHT22;10015;52.530;13.390;2023-05-27T09:47:41;23.50;84.00
19728;DHT22;10015;52.530;13.390;2023-05-27T09:50:08;23.70;80.40
19728;DHT22;10015;52.530;13.390;2023-05-27T09:52:38;23.60;79.60
19728;DHT22;10015;52.530;13.390;2023-05-27T09:55:12;23.60;81.00
19728;DHT22;10015;52.530;13.390;2023-05-27T09:57:41;23.70;77.20
19728;DHT22;10015;52.530;13.390;2023-05-27T10:00:08;23.60;79.70
19728;DHT22;10015;52.530;13.390;2023-05-27T10:02:48;23.60;77.90
19728;DHT22;10015;52.530;13.390;2023-05-27T10:05:15;23.30;77.80
19728;DHT22;10015;52.530;13.390;2023-05-27T10:07:43;23.30;79.80
19728;DHT22;10015;52.530;13.390;2023-05-27T10:10:11;23.30;79.30
19728;DHT22;10015;52.530;13.390;2023-05-27T10:12:38;23.10;77.20
19728;DHT22;10015;52.530;13.390;2023-05-27T10:15:05;22.90;77.00
19728;DHT22;10015;52.530;13.390;2023-05-27T10:17:42;22.70;76.90
19728;DHT22;10015;52.530;13.390;2023-05-27T10:20:12;22.50;77.50
19728;DHT22;10015;52.530;13.390;2023-05-27T10:22:42;22.40;77.70
19728;DHT22;10015;52.530;13.390;2023-05-27T10:25:12;22.30;77.10
19728;DHT22;10015;52.530;13.390;2023-05-27T10:27:46;22.40;78.10
19728;DHT22;10015;52.530;13.390;2023-05-27T10:30:13;22.60;81.00
19728;DHT22;10015;52.530;13.390;2023-05-27T10:32:50;22.80;77.80
19728;DHT22;10015;52.530;13.390;2023-05-27T10:35:19;22.70;78.00
19728;DHT22;10015;52.530;13.390;2023-05-27T10:37:46;22.80;77.40
19728;DHT22;10015;52.530;13.390;2023-05-27T10:40:12;22.80;77.40
19728;DHT22;10015;52.530;13.390;2023-05-27T10:43:00;22.90;77.30
19728;DHT22;10015;52.530;13.390;2023-05-27T10:45:32;23.00;79.60
19728;DHT22;10015;52.530;13.390;2023-05-27T10:48:01;22.90;76.10
19728;DHT22;10015;52.530;13.390;2023-05-27T10:50:31;22.90;77.30
19728;DHT22;10015;52.530;13.390;2023-05-27T10:52:59;23.10;79.20
19728;DHT22;10015;52.530;13.390;2023-05-27T10:55:27;23.30;80.20
19728;DHT22;10015;52.530;13.390;2023-05-27T10:57:52;23.60;79.40
19728;DHT22;10015;52.530;13.390;2023-05-27T11:00:20;23.80;77.50
19728;DHT22;10015;52.530;13.390;2023-05-27T11:02:47;23.80;77.80
19728;DHT22;10015;52.530;13.390;2023-05-27T11:05:14;23.90;76.70
19728;DHT22;10015;52.530;13.390;2023-05-27T11:07:41;23.80;76.90
19728;DHT22;10015;52.530;13.390;2023-05-27T11:10:08;23.70;78.30
19728;DHT22;10015;52.530;13.390;2023-05-27T11:12:35;23.70;77.30
19728;DHT22;10015;52.530;13.390;2023-05-27T11:15:01;23.90;76.60
19728;DHT22;10015;52.530;13.390;2023-05-27T11:17:27;23.90;76.30
19728;DHT22;10015;52.530;13.390;2023-05-27T11:19:54;23.60;77.20
19728;DHT22;10015;52.530;13.390;2023-05-27T11:22:21;23.70;78.50
19728;DHT22;10015;52.530;13.390;2023-05-27T11:24:59;23.70;78.50
19728;DHT22;10015;52.530;13.390;2023-05-27T11:27:36;23.80;77.50
19728;DHT22;10015;52.530;13.390;2023-05-27T11:30:12;23.80;76.70
19728;DHT22;10015;52.530;13.390;2023-05-27T11:32:40;23.70;77.30
19728;DHT22;10015;52.530;13.390;2023-05-27T11:35:14;23.70;77.80
19728;DHT22;10015;52.530;13.390;2023-05-27T11:37:40;23.60;77.70
19728;DHT22;10015;52.530;13.390;2023-05-27T11:40:15;23.80;78.10
19728;DHT22;10015;52.530;13.390;2023-05-27T11:42:45;23.60;77.70
19728;DHT22;10015;52.530;13.390;2023-05-27T11:45:20;23.50;80.30
19728;DHT22;10015;52.530;13.390;2023-05-27T11:47:48;23.60;77.10
19728;DHT22;10015;52.530;13.390;2023-05-27T11:50:21;23.70;77.30
19728;DHT22;10015;52.530;13.390;2023-05-27T11:52:54;23.60;77.80
19728;DHT22;10015;52.530;13.390;2023-05-27T11:55:22;23.50;77.90
19728;DHT22;10015;52.530;13.390;2023-05-27T11:57:48;23.40;77.90
19728;DHT22;10015;52.530;13.390;2023-05-27T12:00:15;23.40;78.30
19728;DHT22;10015;52.530;13.390;2023-05-27T12:02:42;23.20;77.90
19728;DHT22;10015;52.530;13.390;2023-05-27T12:05:09;23.30;78.10
19728;DHT22;10015;52.530;13.390;2023-05-27T12:07:36;23.20;79.20
19728;DHT22;10015;52.530;13.390;2023-05-27T12:10:07;23.20;78.80
19728;DHT22;10015;52.530;13.390;2023-05-27T12:12:33;23.20;79.50
19728;DHT22;10015;52.530;13.390;2023-05-27T12:15:03;23.30;77.80
19728;DHT22;10015;52.530;13.390;2023-05-27T12:17:29;23.40;77.30
19728;DHT22;10015;52.530;13.390;2023-05-27T12:19:55;23.30;77.80
19728;DHT22;10015;52.530;13.390;2023-05-27T12:22:21;23.30;77.40
19728;DHT22;10015;52.530;13.390;2023-05-27T12:24:49;23.30;77.30
19728;DHT22;10015;52.530;13.390;2023-05-27T12:27:20;23.10;76.40
19728;DHT22;10015;52.530;13.390;2023-05-27T12:29:46;23.00;76.50
19728;DHT22;10015;52.530;13.390;2023-05-27T12:32:12;23.30;77.20
19728;DHT22;10015;52.530;13.390;2023-05-27T12:34:38;23.10;77.50
19728;DHT22;10015;52.530;13.390;2023-05-27T12:37:04;23.40;76.40
19728;DHT22;10015;52.530;13.390;2023-05-27T12:39:31;23.30;76.20
19728;DHT22;10015;52.530;13.390;2023-05-27T12:41:57;23.40;77.40
19728;DHT22;10015;52.530;13.390;2023-05-27T12:44:23;23.40;76.70
19728;DHT22;10015;52.530;13.390;2023-05-27T12:46:49;23.40;75.60
19728;DHT22;10015;52.530;13.390;2023-05-27T12:49:15;23.40;76.10
19728;DHT22;10015;52.530;13.390;2023-05-27T12:51:40;23.20;74.90
19728;DHT22;10015;52.530;13.390;2023-05-27T12:54:08;23.20;74.80
19728;DHT22;10015;52.530;13.390;2023-05-27T12:56:34;23.30;74.50
19728;DHT22;10015;52.530;13.390;2023-05-27T13:02:46;23.40;75.10
19728;DHT22;10015;52.530;13.390;2023-05-27T13:05:30;23.60;75.00
19728;DHT22;10015;52.530;13.390;2023-05-27T13:08:00;23.60;75.30
19728;DHT22;10015;52.530;13.390;2023-05-27T13:10:27;23.40;74.60
19728;DHT22;10015;52.530;13.390;2023-05-27T13:12:54;23.30;74.70
19728;DHT22;10015;52.530;13.390;2023-05-27T13:15:21;23.20;76.00
19728;DHT22;10015;52.530;13.390;2023-05-27T13:17:50;23.10;74.90
19728;DHT22;10015;52.530;13.390;2023-05-27T13:20:17;23.20;74.40
19728;DHT22;10015;52.530;13.390;2023-05-27T13:22:45;23.10;75.20
19728;DHT22;10015;52.530;13.390;2023-05-27T13:25:12;23.30;74.60
19728;DHT22;10015;52.530;13.390;2023-05-27T13:27:39;23.30;74.50
19728;DHT22;10015;52.530;13.390;2023-05-27T13:30:08;23.40;75.60
19728;DHT22;10015;52.530;13.390;2023-05-27T13:32:34;23.40;74.40
19728;DHT22;10015;52.530;13.390;2023-05-27T13:35:01;23.30;74.40
19728;DHT22;10015;52.530;13.390;2023-05-27T13:37:27;23.40;74.60
19728;DHT22;10015;52.530;13.390;2023-05-27T13:39:53;23.60;75.70
19728;DHT22;10015;52.530;13.390;2023-05-27T13:42:19;23.50;76.20
19728;DHT22;10015;52.530;13.390;2023-05-27T13:44:45;23.50;75.40
19728;DHT22;10015;52.530;13.390;2023-05-27T13:47:11;23.50;75.40
19728;DHT22;10015;52.530;13.390;2023-05-27T13:49:37;23.20;75.90
19728;DHT22;10015;52.530;13.390;2023-05-27T13:52:03;23.30;75.20
19728;DHT22;10015;52.530;13.390;2023-05-27T13:54:29;23.30;75.70
19728;DHT22;10015;52.530;13.390;2023-05-27T13:56:55;23.30;76.40
19728;DHT22;10015;52.530;13.390;2023-05-27T13:59:21;23.40;76.20
19728;DHT22;10015;52.530;13.390;2023-05-27T14:01:47;23.50;76.10
19728;DHT22;10015;52.530;13.390;2023-05-27T14:04:15;23.50;75.50
19728;DHT22;10015;52.530;13.390;2023-05-27T14:06:42;23.50;74.90
19728;DHT22;10015;52.530;13.390;2023-05-27T14:09:08;23.50;74.80
19728;DHT22;10015;52.530;13.390;2023-05-27T14:11:34;23.30;74.30
19728;DHT22;10015;52.530;13.390;2023-05-27T14:14:00;22.90;74.50
19728;DHT22;10015;52.530;13.390;2023-05-27T14:16:26;22.80;74.80
19728;DHT22;10015;52.530;13.390;2023-05-27T14:18:51;22.90;74.50
19728;DHT22;10015;52.530;13.390;2023-05-27T14:21:17;22.90;75.40
19728;DHT22;10015;52.530;13.390;2023-05-27T14:23:44;22.90;75.90
19728;DHT22;10015;52.530;13.390;2023-05-27T14:26:10;23.00;76.60
19728;DHT22;10015;52.530;13.390;2023-05-27T14:28:36;22.90;76.40
19728;DHT22;10015;52.530;13.390;2023-05-27T14:31:02;22.80;77.40
19728;DHT22;10015;52.530;13.390;2023-05-27T14:33:28;22.90;77.30
19728;DHT22;10015;52.530;13.390;2023-05-27T14:35:54;23.10;77.70
19728;DHT22;10015;52.530;13.390;2023-05-27T14:38:20;23.20;77.70
19728;DHT22;10015;52.530;13.390;2023-05-27T14:40:46;23.30;77.40
19728;DHT22;10015;52.530;13.390;2023-05-27T14:43:13;23.20;77.30
19728;DHT22;10015;52.530;13.390;2023-05-27T14:45:43;23.30;76.90
19728;DHT22;10015;52.530;13.390;2023-05-27T14:48:09;23.30;76.50
19728;DHT22;10015;52.530;13.390;2023-05-27T14:50:35;23.50;76.90
19728;DHT22;10015;52.530;13.390;2023-05-27T14:53:01;23.40;77.40
19728;DHT22;10015;52.530;13.390;2023-05-27T14:55:27;23.50;77.80
19728;DHT22;10015;52.530;13.390;2023-05-27T14:57:53;23.50;76.90
19728;DHT22;10015;52.530;13.390;2023-05-27T15:00:18;23.40;77.20
19728;DHT22;10015;52.530;13.390;2023-05-27T15:02:44;23.30;76.80
19728;DHT22;10015;52.530;13.390;2023-05-27T15:05:11;23.30;77.30
19728;DHT22;10015;52.530;13.390;2023-05-27T15:07:37;23.30;76.40
19728;DHT22;10015;52.530;13.390;2023-05-27T15:10:04;23.50;76.10
19728;DHT22;10015;52.530;13.390;2023-05-27T15:12:42;23.50;75.30
19728;DHT22;10015;52.530;13.390;2023-05-27T15:15:13;23.30;75.20
19728;DHT22;10015;52.530;13.390;2023-05-27T15:17:40;23.30;75.50
19728;DHT22;10015;52.530;13.390;2023-05-27T15:20:10;23.30;75.10
19728;DHT22;10015;52.530;13.390;2023-05-27T15:22:36;23.40;75.70
19728;DHT22;10015;52.530;13.390;2023-05-27T15:25:02;23.30;76.10
19728;DHT22;10015;52.530;13.390;2023-05-27T15:27:28;23.20;75.60
19728;DHT22;10015;52.530;13.390;2023-05-27T15:29:54;23.30;75.30
19728;DHT22;10015;52.530;13.390;2023-05-27T15:32:20;23.30;75.30
19728;DHT22;10015;52.530;13.390;2023-05-27T15:34:46;23.30;75.00